Time;durP1;ratioP1;P1;durP2;ratioP2;P2;SDS_P1;SDS_P2;PMS_P1;PMS_P2;Temp;Humidity;BMP_temperature;BMP_pressure;BME280_temperature;BME280_humidity;BME280_pressure;Samples;Min_cycle;Max_cycle;Signal;HPM_P1;HPM_P2
2020/12/23 00:01:26;;;;;;;133.70;66.35;;;;;;;;;;5053760;28;20059;-51
2020/12/23 00:03:55;;;;;;;114.43;66.00;;;;;;;;;;5071705;28;20029;-51
2020/12/23 00:06:21;;;;;;;101.38;63.88;;;;;;;;;;5071797;28;20888;-51
2020/12/23 00:08:48;;;;;;;109.70;62.65;;;;;;;;;;5071900;28;20783;-51
2020/12/23 00:11:18;;;;;;;109.95;65.55;;;;;;;;;;5071582;28;20032;-50
2020/12/23 00:13:44;;;;;;;95.60;59.50;;;;;;;;;;5071379;28;20089;-52
2020/12/23 00:16:10;;;;;;;91.25;59.67;;;;;;;;;;5071044;28;20182;-51
2020/12/23 00:18:36;;;;;;;101.07;62.95;;;;;;;;;;5071495;28;20052;-51
2020/12/23 00:21:03;;;;;;;106.70;61.63;;;;;;;;;;5071637;28;20058;-51
2020/12/23 00:23:29;;;;;;;122.03;64.43;;;;;;;;;;5071432;28;20105;-52
2020/12/23 00:25:55;;;;;;;101.28;63.33;;;;;;;;;;5071141;28;20025;-51
2020/12/23 00:28:21;;;;;;;102.15;60.35;;;;;;;;;;5070861;28;20020;-58
2020/12/23 00:30:47;;;;;;;85.60;58.13;;;;;;;;;;5071126;28;20109;-57
2020/12/23 00:33:14;;;;;;;97.45;58.53;;;;;;;;;;5071315;28;20032;-57
2020/12/23 00:35:40;;;;;;;94.28;60.03;;;;;;;;;;5071473;28;20031;-53
2020/12/23 00:38:06;;;;;;;113.20;63.38;;;;;;;;;;5071391;28;20114;-62
2020/12/23 00:40:32;;;;;;;114.32;62.42;;;;;;;;;;5071342;28;20053;-62
2020/12/23 00:42:59;;;;;;;106.10;63.28;;;;;;;;;;5071169;28;20029;-58
2020/12/23 00:45:25;;;;;;;100.88;58.58;;;;;;;;;;5071172;28;20031;-45
2020/12/23 00:47:51;;;;;;;93.97;55.78;;;;;;;;;;5071382;28;20131;-48
2020/12/23 00:50:18;;;;;;;113.97;66.00;;;;;;;;;;5071361;28;20024;-49
2020/12/23 00:52:44;;;;;;;95.55;59.60;;;;;;;;;;5073490;28;20020;-49
2020/12/23 00:55:12;;;;;;;102.07;61.53;;;;;;;;;;5074993;28;20048;-47
2020/12/23 00:57:38;;;;;;;117.63;61.90;;;;;;;;;;5074871;28;20063;-52
2020/12/23 01:00:05;;;;;;;92.93;57.67;;;;;;;;;;5074895;28;20534;-52
2020/12/23 01:02:32;;;;;;;95.18;58.50;;;;;;;;;;5074745;28;20032;-51
2020/12/23 01:04:58;;;;;;;95.38;56.80;;;;;;;;;;5074573;28;20025;-51
2020/12/23 01:07:24;;;;;;;109.03;59.60;;;;;;;;;;5074649;28;20021;-52
2020/12/23 01:09:51;;;;;;;121.32;61.60;;;;;;;;;;5074715;28;20021;-52
2020/12/23 01:12:17;;;;;;;99.55;56.45;;;;;;;;;;5074726;28;20028;-50
2020/12/23 01:14:43;;;;;;;78.60;53.72;;;;;;;;;;5074691;28;20028;-51
2020/12/23 01:17:11;;;;;;;95.88;54.33;;;;;;;;;;5074568;28;20056;-52
2020/12/23 01:19:37;;;;;;;109.15;57.92;;;;;;;;;;5074339;28;20036;-51
2020/12/23 01:22:04;;;;;;;107.40;57.47;;;;;;;;;;5074474;28;20032;-51
2020/12/23 01:24:30;;;;;;;100.05;61.25;;;;;;;;;;5074476;28;20028;-52
2020/12/23 01:26:56;;;;;;;86.38;54.30;;;;;;;;;;5074416;28;20106;-50
2020/12/23 01:29:22;;;;;;;95.13;54.85;;;;;;;;;;5074488;28;20466;-51
2020/12/23 01:31:48;;;;;;;107.95;60.30;;;;;;;;;;5074152;28;20497;-51
2020/12/23 01:34:15;;;;;;;106.35;57.20;;;;;;;;;;5074390;28;20032;-51
2020/12/23 01:36:41;;;;;;;97.82;61.53;;;;;;;;;;5074290;28;20020;-51
2020/12/23 01:39:07;;;;;;;101.35;54.30;;;;;;;;;;5074393;28;20367;-51
2020/12/23 01:41:33;;;;;;;118.88;63.45;;;;;;;;;;5074316;28;20033;-53
2020/12/23 01:44:00;;;;;;;107.50;61.00;;;;;;;;;;5074199;28;20100;-51
2020/12/23 01:46:29;;;;;;;97.72;60.35;;;;;;;;;;5073990;28;20428;-51
2020/12/23 01:48:55;;;;;;;114.78;60.47;;;;;;;;;;5074179;28;20039;-52
2020/12/23 01:51:23;;;;;;;128.10;65.20;;;;;;;;;;5074333;28;20790;-51
2020/12/23 01:53:49;;;;;;;115.57;64.65;;;;;;;;;;5074007;28;20032;-51
2020/12/23 01:56:19;;;;;;;110.20;61.20;;;;;;;;;;5074206;28;20083;-51
2020/12/23 01:58:46;;;;;;;77.80;57.05;;;;;;;;;;5073934;28;20112;-51
2020/12/23 02:01:14;;;;;;;105.65;60.45;;;;;;;;;;5073702;28;20029;-51
2020/12/23 02:03:40;;;;;;;107.63;60.80;;;;;;;;;;5073150;28;20016;-52
2020/12/23 02:06:07;;;;;;;109.55;63.78;;;;;;;;;;5073606;28;20070;-52
2020/12/23 02:08:33;;;;;;;105.97;60.47;;;;;;;;;;5073568;28;20029;-53
2020/12/23 02:10:59;;;;;;;123.90;65.88;;;;;;;;;;5073665;28;20021;-52
2020/12/23 02:13:39;;;;;;;103.85;61.85;;;;;;;;;;5073611;28;20107;-53
2020/12/23 02:16:05;;;;;;;100.65;61.67;;;;;;;;;;5073429;28;20028;-51
2020/12/23 02:18:32;;;;;;;116.97;58.55;;;;;;;;;;5051857;28;20053;-52
2020/12/23 02:20:58;;;;;;;99.05;58.97;;;;;;;;;;5053359;28;20386;-51
2020/12/23 02:23:24;;;;;;;91.55;67.32;;;;;;;;;;5053236;28;20052;-50
2020/12/23 02:25:51;;;;;;;108.65;64.18;;;;;;;;;;5053296;28;20028;-51
2020/12/23 02:28:17;;;;;;;105.28;65.22;;;;;;;;;;5053092;28;20386;-52
2020/12/23 02:30:43;;;;;;;112.63;68.28;;;;;;;;;;5053188;28;20029;-52
2020/12/23 02:33:10;;;;;;;121.32;69.07;;;;;;;;;;5052949;28;20025;-51
2020/12/23 02:35:36;;;;;;;117.90;71.35;;;;;;;;;;5053057;28;20025;-51
2020/12/23 02:38:02;;;;;;;137.90;76.20;;;;;;;;;;5053124;28;20017;-52
2020/12/23 02:40:28;;;;;;;106.25;68.13;;;;;;;;;;5052931;28;20025;-52
2020/12/23 02:42:55;;;;;;;129.60;69.45;;;;;;;;;;5052904;28;20017;-52
2020/12/23 02:45:21;;;;;;;101.85;64.97;;;;;;;;;;5052819;28;20040;-53
2020/12/23 02:47:48;;;;;;;95.55;60.00;;;;;;;;;;5052861;28;20018;-51
2020/12/23 02:50:14;;;;;;;130.75;63.90;;;;;;;;;;5053000;28;20079;-52
2020/12/23 02:52:40;;;;;;;123.53;63.55;;;;;;;;;;5052855;28;20500;-52
2020/12/23 02:55:06;;;;;;;118.88;65.45;;;;;;;;;;5052877;28;20025;-52
2020/12/23 02:57:33;;;;;;;143.90;61.50;;;;;;;;;;5052669;28;20526;-52
2020/12/23 02:59:59;;;;;;;119.25;63.63;;;;;;;;;;5052755;28;20048;-52
2020/12/23 03:02:25;;;;;;;150.18;72.03;;;;;;;;;;5052828;28;20021;-51
2020/12/23 03:04:51;;;;;;;111.53;62.88;;;;;;;;;;5052821;28;20024;-50
2020/12/23 03:07:18;;;;;;;125.20;79.22;;;;;;;;;;5052575;28;20021;-52
2020/12/23 03:09:44;;;;;;;121.20;68.20;;;;;;;;;;5052391;28;20033;-52
2020/12/23 03:12:10;;;;;;;109.03;71.80;;;;;;;;;;5051132;28;20021;-51
2020/12/23 03:14:36;;;;;;;109.88;67.95;;;;;;;;;;5051579;28;20052;-51
2020/12/23 03:17:03;;;;;;;101.63;69.45;;;;;;;;;;5055963;28;20379;-51
2020/12/23 03:19:29;;;;;;;114.75;67.93;;;;;;;;;;5072206;28;20099;-52
2020/12/23 03:21:55;;;;;;;117.50;68.10;;;;;;;;;;5072141;28;20078;-52
2020/12/23 03:24:21;;;;;;;115.32;70.38;;;;;;;;;;5071976;28;20028;-51
2020/12/23 03:26:48;;;;;;;129.25;74.30;;;;;;;;;;5054156;28;20399;-52
2020/12/23 03:29:14;;;;;;;117.75;77.40;;;;;;;;;;5071989;28;20017;-52
2020/12/23 03:31:40;;;;;;;118.50;64.70;;;;;;;;;;5071943;28;20020;-51
2020/12/23 03:34:07;;;;;;;132.27;72.05;;;;;;;;;;5072072;28;20104;-51
2020/12/23 03:36:33;;;;;;;133.38;73.78;;;;;;;;;;5071910;28;20073;-51
2020/12/23 03:39:00;;;;;;;120.38;74.03;;;;;;;;;;5071917;28;20059;-52
2020/12/23 03:41:26;;;;;;;112.57;69.38;;;;;;;;;;5072044;28;20482;-51
2020/12/23 03:43:52;;;;;;;113.90;72.82;;;;;;;;;;5071838;28;20032;-52
2020/12/23 03:46:18;;;;;;;121.75;74.07;;;;;;;;;;5071724;28;20034;-50
2020/12/23 03:48:45;;;;;;;126.70;76.30;;;;;;;;;;5071798;28;20025;-51
2020/12/23 03:51:11;;;;;;;123.28;66.93;;;;;;;;;;5072165;28;20024;-51
2020/12/23 03:53:37;;;;;;;121.43;74.50;;;;;;;;;;5071135;28;20371;-51
2020/12/23 03:56:04;;;;;;;129.57;75.03;;;;;;;;;;5070377;28;20028;-51
2020/12/23 03:58:30;;;;;;;123.43;74.43;;;;;;;;;;5070424;28;20402;-51
2020/12/23 04:00:56;;;;;;;125.40;79.55;;;;;;;;;;5070276;28;20024;-50
2020/12/23 04:03:22;;;;;;;138.50;82.30;;;;;;;;;;5070078;28;20363;-51
2020/12/23 04:05:49;;;;;;;165.82;94.80;;;;;;;;;;5070727;28;20021;-50
2020/12/23 04:08:15;;;;;;;140.20;86.53;;;;;;;;;;5071543;28;20044;-51
2020/12/23 04:10:41;;;;;;;143.40;82.35;;;;;;;;;;5061943;28;20391;-52
2020/12/23 04:13:07;;;;;;;153.32;82.82;;;;;;;;;;5071751;28;20017;-51
2020/12/23 04:15:34;;;;;;;140.88;91.00;;;;;;;;;;5071800;28;20025;-51
2020/12/23 04:18:00;;;;;;;151.98;88.25;;;;;;;;;;5071500;28;20084;-52
2020/12/23 04:20:26;;;;;;;158.30;94.47;;;;;;;;;;5071070;28;20021;-52
2020/12/23 04:22:53;;;;;;;173.18;96.90;;;;;;;;;;5069848;28;20052;-51
2020/12/23 04:25:19;;;;;;;198.77;115.28;;;;;;;;;;5070116;28;20032;-51
2020/12/23 04:27:45;;;;;;;177.35;101.82;;;;;;;;;;5074380;28;20111;-51
2020/12/23 04:30:11;;;;;;;175.40;107.57;;;;;;;;;;5074228;28;20533;-51
2020/12/23 04:32:38;;;;;;;193.30;116.43;;;;;;;;;;5073955;28;20016;-52
2020/12/23 04:35:05;;;;;;;167.98;105.90;;;;;;;;;;5071414;28;20477;-52
2020/12/23 04:37:32;;;;;;;170.88;101.43;;;;;;;;;;5074078;28;20029;-52
2020/12/23 04:39:59;;;;;;;193.10;113.15;;;;;;;;;;5074019;28;20032;-51
2020/12/23 04:42:25;;;;;;;167.50;107.65;;;;;;;;;;5074007;28;20031;-52
2020/12/23 04:44:52;;;;;;;157.57;111.93;;;;;;;;;;5073979;28;20359;-52
2020/12/23 04:47:27;;;;;;;189.02;102.97;;;;;;;;;;5075218;28;20032;-51
2020/12/23 04:49:55;;;;;;;178.82;115.40;;;;;;;;;;5074277;28;20369;-51
2020/12/23 04:52:24;;;;;;;190.10;116.40;;;;;;;;;;5075045;28;20424;-51
2020/12/23 04:54:51;;;;;;;220.30;125.07;;;;;;;;;;5076668;28;20031;-51
2020/12/23 04:57:18;;;;;;;199.25;119.82;;;;;;;;;;5076405;28;20029;-51
2020/12/23 04:59:45;;;;;;;168.75;106.38;;;;;;;;;;5076268;28;20028;-51
2020/12/23 05:02:11;;;;;;;174.23;104.07;;;;;;;;;;5075869;28;20035;-51
2020/12/23 05:04:37;;;;;;;163.55;104.55;;;;;;;;;;5075885;28;20020;-51
2020/12/23 05:07:07;;;;;;;183.60;108.97;;;;;;;;;;5076489;28;20021;-51
2020/12/23 05:09:34;;;;;;;192.47;106.93;;;;;;;;;;5076380;28;20108;-53
2020/12/23 05:12:00;;;;;;;169.93;98.43;;;;;;;;;;5075131;28;20031;-51
2020/12/23 05:14:28;;;;;;;161.02;96.53;;;;;;;;;;5075634;28;20038;-52
2020/12/23 05:16:54;;;;;;;170.45;100.50;;;;;;;;;;5075778;28;20382;-52
2020/12/23 05:19:20;;;;;;;156.80;96.03;;;;;;;;;;5075862;28;20090;-52
2020/12/23 05:21:47;;;;;;;151.60;94.38;;;;;;;;;;5075855;28;20095;-52
2020/12/23 05:24:14;;;;;;;157.98;88.38;;;;;;;;;;5075511;28;20021;-52
2020/12/23 05:26:41;;;;;;;148.75;93.57;;;;;;;;;;5075586;28;20074;-52
2020/12/23 05:29:08;;;;;;;182.10;96.30;;;;;;;;;;5075834;28;20021;-52
2020/12/23 05:31:35;;;;;;;147.60;91.72;;;;;;;;;;5075518;28;20048;-52
2020/12/23 05:34:03;;;;;;;168.10;87.82;;;;;;;;;;5075103;28;20039;-51
2020/12/23 05:36:30;;;;;;;130.82;80.30;;;;;;;;;;5075559;28;20028;-51
2020/12/23 05:38:58;;;;;;;142.45;85.35;;;;;;;;;;5074965;28;20020;-51
2020/12/23 05:41:25;;;;;;;132.98;79.18;;;;;;;;;;5075091;28;20397;-51
2020/12/23 05:43:51;;;;;;;138.40;79.75;;;;;;;;;;5075770;28;20483;-52
2020/12/23 05:46:17;;;;;;;130.10;77.55;;;;;;;;;;5074728;28;20024;-52
2020/12/23 05:48:44;;;;;;;139.32;81.43;;;;;;;;;;5074472;28;20066;-52
2020/12/23 05:51:11;;;;;;;134.18;81.38;;;;;;;;;;5074585;28;20025;-51
2020/12/23 05:53:38;;;;;;;139.82;77.32;;;;;;;;;;5075333;28;20505;-51
2020/12/23 05:56:05;;;;;;;121.78;73.72;;;;;;;;;;5075072;28;20425;-52
2020/12/23 05:58:33;;;;;;;115.22;76.85;;;;;;;;;;5073975;28;20027;-51
2020/12/23 06:01:00;;;;;;;127.60;74.68;;;;;;;;;;5074539;28;20050;-52
2020/12/23 06:03:29;;;;;;;97.47;67.55;;;;;;;;;;5075104;28;20020;-51
2020/12/23 06:05:59;;;;;;;107.18;70.55;;;;;;;;;;5074942;28;20028;-52
2020/12/23 06:08:35;;;;;;;133.07;68.35;;;;;;;;;;5074934;28;20423;-52
2020/12/23 06:11:22;;;;;;;101.72;59.88;;;;;;;;;;5075451;28;20052;-51
2020/12/23 06:14:08;;;;;;;101.15;61.55;;;;;;;;;;5068215;28;20107;-52
2020/12/23 06:16:35;;;;;;;101.72;63.03;;;;;;;;;;5064901;28;20413;-52
2020/12/23 06:19:03;;;;;;;109.55;66.47;;;;;;;;;;5075507;28;20044;-51
2020/12/23 06:21:29;;;;;;;121.00;60.67;;;;;;;;;;5075329;28;20025;-51
2020/12/23 06:24:03;;;;;;;86.90;58.00;;;;;;;;;;5075190;28;20025;-52
2020/12/23 06:26:30;;;;;;;105.35;62.40;;;;;;;;;;5075258;28;20100;-51
2020/12/23 06:28:58;;;;;;;113.80;59.40;;;;;;;;;;5075020;28;20060;-52
2020/12/23 06:31:31;;;;;;;110.35;60.13;;;;;;;;;;5074907;28;20020;-52
2020/12/23 06:33:58;;;;;;;98.57;57.45;;;;;;;;;;5075210;28;20078;-52
2020/12/23 06:36:31;;;;;;;105.95;56.42;;;;;;;;;;5074773;28;20029;-53
2020/12/23 06:39:16;;;;;;;94.60;59.65;;;;;;;;;;5074796;28;20029;-53
2020/12/23 06:41:42;;;;;;;87.18;53.08;;;;;;;;;;5074708;28;20025;-53
2020/12/23 06:44:09;;;;;;;100.10;57.80;;;;;;;;;;5073400;28;20059;-53
2020/12/23 06:46:54;;;;;;;103.72;57.45;;;;;;;;;;5074533;28;20024;-52
2020/12/23 06:49:20;;;;;;;93.88;52.22;;;;;;;;;;5074536;28;20021;-53
2020/12/23 06:51:46;;;;;;;80.72;50.65;;;;;;;;;;5073810;28;20450;-52
2020/12/23 06:54:33;;;;;;;98.13;58.28;;;;;;;;;;5074813;28;20493;-52
2020/12/23 06:56:59;;;;;;;80.45;52.10;;;;;;;;;;5075173;28;20430;-52
2020/12/23 06:59:44;;;;;;;93.35;50.08;;;;;;;;;;5074672;28;20377;-53
2020/12/23 07:02:10;;;;;;;102.00;52.22;;;;;;;;;;5074346;28;20071;-52
2020/12/23 07:04:46;;;;;;;74.03;49.97;;;;;;;;;;5074473;28;20111;-52
2020/12/23 07:07:32;;;;;;;73.70;47.65;;;;;;;;;;5074518;28;20122;-51
2020/12/23 07:10:05;;;;;;;75.05;46.40;;;;;;;;;;5074089;28;20104;-51
2020/12/23 07:12:32;;;;;;;84.55;50.83;;;;;;;;;;5074411;28;20378;-51
2020/12/23 07:15:16;;;;;;;84.40;48.38;;;;;;;;;;5074879;28;20361;-51
2020/12/23 07:17:44;;;;;;;73.07;44.42;;;;;;;;;;5073980;28;20116;-51
2020/12/23 07:20:13;;;;;;;80.53;45.78;;;;;;;;;;5074428;28;20029;-51
2020/12/23 07:22:40;;;;;;;75.47;47.70;;;;;;;;;;5074262;28;20056;-51
2020/12/23 07:25:07;;;;;;;71.15;45.50;;;;;;;;;;5073846;28;20052;-52
2020/12/23 07:27:33;;;;;;;81.55;47.45;;;;;;;;;;5074454;28;20023;-51
2020/12/23 07:30:07;;;;;;;65.05;40.03;;;;;;;;;;5073865;28;20463;-51
2020/12/23 07:32:33;;;;;;;92.25;45.92;;;;;;;;;;5073786;28;20020;-51
2020/12/23 07:35:00;;;;;;;77.68;42.80;;;;;;;;;;5074088;28;20382;-51
2020/12/23 07:37:39;;;;;;;82.32;45.50;;;;;;;;;;5074051;28;20571;-50
2020/12/23 07:40:16;;;;;;;80.78;48.78;;;;;;;;;;5074028;28;20033;-51
2020/12/23 07:42:49;;;;;;;76.82;46.70;;;;;;;;;;5073687;28;20033;-50
2020/12/23 07:45:16;;;;;;;70.30;43.22;;;;;;;;;;5073847;28;20466;-51
2020/12/23 07:47:52;;;;;;;69.57;40.47;;;;;;;;;;5073633;28;20024;-51
2020/12/23 07:50:18;;;;;;;71.68;41.25;;;;;;;;;;5073549;28;20017;-50
2020/12/23 07:52:44;;;;;;;63.42;37.78;;;;;;;;;;5073746;28;20085;-50
2020/12/23 07:55:12;;;;;;;76.82;37.88;;;;;;;;;;5074256;28;20370;-51
2020/12/23 07:57:38;;;;;;;53.13;33.00;;;;;;;;;;5073475;28;20028;-51
2020/12/23 08:00:05;;;;;;;64.15;36.47;;;;;;;;;;5073546;28;20466;-51
2020/12/23 08:02:31;;;;;;;60.08;33.85;;;;;;;;;;5073767;28;20046;-51
2020/12/23 08:04:58;;;;;;;61.33;34.70;;;;;;;;;;5073651;28;20020;-51
2020/12/23 08:07:24;;;;;;;52.97;33.90;;;;;;;;;;5073679;28;20086;-51
2020/12/23 08:09:51;;;;;;;58.45;34.72;;;;;;;;;;5073370;28;20017;-51
2020/12/23 08:12:18;;;;;;;54.22;37.42;;;;;;;;;;5073931;28;20359;-52
2020/12/23 08:14:44;;;;;;;77.18;35.00;;;;;;;;;;5073647;28;20056;-51
2020/12/23 08:17:19;;;;;;;59.38;32.75;;;;;;;;;;5072788;28;20045;-51
2020/12/23 08:19:45;;;;;;;56.88;31.42;;;;;;;;;;5073269;28;20060;-51
2020/12/23 08:22:12;;;;;;;51.92;31.52;;;;;;;;;;5073597;28;20071;-53
2020/12/23 08:24:39;;;;;;;53.50;31.95;;;;;;;;;;5073472;28;20025;-51
2020/12/23 08:27:05;;;;;;;56.45;33.03;;;;;;;;;;5073525;28;20020;-51
2020/12/23 08:29:32;;;;;;;46.95;29.55;;;;;;;;;;5073261;28;20020;-52
2020/12/23 08:31:59;;;;;;;50.42;34.30;;;;;;;;;;5073450;28;20470;-51
2020/12/23 08:34:26;;;;;;;61.20;36.00;;;;;;;;;;5073260;28;20028;-51
2020/12/23 08:36:53;;;;;;;42.78;31.70;;;;;;;;;;5073307;28;20028;-51
2020/12/23 08:39:28;;;;;;;60.50;32.65;;;;;;;;;;5073063;28;20029;-51
2020/12/23 08:41:54;;;;;;;63.10;35.95;;;;;;;;;;5073346;28;20029;-51
2020/12/23 08:44:21;;;;;;;53.20;32.42;;;;;;;;;;5073031;28;20028;-51
2020/12/23 08:46:48;;;;;;;58.35;33.53;;;;;;;;;;5072767;28;20470;-51
2020/12/23 08:49:15;;;;;;;52.13;31.08;;;;;;;;;;5073344;28;20028;-51
2020/12/23 08:51:42;;;;;;;52.22;30.48;;;;;;;;;;5072491;28;20025;-53
2020/12/23 08:54:15;;;;;;;68.03;31.08;;;;;;;;;;5073278;28;20025;-51
2020/12/23 08:56:48;;;;;;;64.95;27.90;;;;;;;;;;5072975;28;20074;-51
2020/12/23 08:59:15;;;;;;;57.88;28.63;;;;;;;;;;5072790;28;20044;-52
2020/12/23 09:01:43;;;;;;;53.50;31.05;;;;;;;;;;5072908;28;20024;-51
2020/12/23 09:04:13;;;;;;;43.42;27.88;;;;;;;;;;5072777;28;20063;-52
2020/12/23 09:06:40;;;;;;;44.80;26.40;;;;;;;;;;5072795;28;20085;-51
2020/12/23 09:09:12;;;;;;;56.65;28.25;;;;;;;;;;5073075;28;20478;-51
2020/12/23 09:11:47;;;;;;;46.17;26.65;;;;;;;;;;5072764;28;20031;-52
2020/12/23 09:14:29;;;;;;;48.40;28.27;;;;;;;;;;5075578;28;20035;-51
2020/12/23 09:17:19;;;;;;;53.95;28.77;;;;;;;;;;5076415;28;20052;-52
2020/12/23 09:19:45;;;;;;;50.25;26.55;;;;;;;;;;5068446;28;20557;-52
2020/12/23 09:22:12;;;;;;;43.42;26.77;;;;;;;;;;5075582;28;20035;-52
2020/12/23 09:24:39;;;;;;;42.17;26.27;;;;;;;;;;5075998;28;20082;-52
2020/12/23 09:27:21;;;;;;;40.05;26.30;;;;;;;;;;5075549;28;20021;-51
2020/12/23 09:29:48;;;;;;;47.33;25.08;;;;;;;;;;5075757;28;20087;-51
2020/12/23 09:32:14;;;;;;;41.95;23.08;;;;;;;;;;5075998;28;20031;-51
2020/12/23 09:34:41;;;;;;;39.78;23.77;;;;;;;;;;5075925;28;20411;-51
2020/12/23 09:37:07;;;;;;;45.90;25.55;;;;;;;;;;5075791;28;20500;-51
2020/12/23 09:39:40;;;;;;;39.83;24.98;;;;;;;;;;5075771;28;20078;-51
2020/12/23 09:42:07;;;;;;;41.13;26.15;;;;;;;;;;5075829;28;20028;-51
2020/12/23 09:44:34;;;;;;;40.40;23.13;;;;;;;;;;5076043;28;20029;-51
2020/12/23 09:47:01;;;;;;;42.72;22.58;;;;;;;;;;5075542;28;20090;-50
2020/12/23 09:49:28;;;;;;;33.90;21.58;;;;;;;;;;5075972;28;20100;-51
2020/12/23 09:51:54;;;;;;;47.08;23.88;;;;;;;;;;5075610;28;20108;-51
2020/12/23 09:54:21;;;;;;;39.00;22.75;;;;;;;;;;5075732;28;20035;-51
2020/12/23 09:56:51;;;;;;;35.88;23.02;;;;;;;;;;5074294;28;20048;-51
2020/12/23 09:59:18;;;;;;;34.83;23.58;;;;;;;;;;5075571;28;20024;-52
2020/12/23 10:01:44;;;;;;;42.33;23.08;;;;;;;;;;5075462;28;20032;-52
2020/12/23 10:04:11;;;;;;;37.67;23.73;;;;;;;;;;5075399;28;20024;-52
2020/12/23 10:06:37;;;;;;;49.88;26.52;;;;;;;;;;5075619;28;20410;-53
2020/12/23 10:09:04;;;;;;;36.97;23.77;;;;;;;;;;5075323;28;20027;-52
2020/12/23 10:11:31;;;;;;;44.40;26.83;;;;;;;;;;5075298;28;20092;-52
2020/12/23 10:13:57;;;;;;;38.97;24.60;;;;;;;;;;5075506;28;20070;-52
2020/12/23 10:16:30;;;;;;;43.22;25.50;;;;;;;;;;5075343;28;20024;-52
2020/12/23 10:18:56;;;;;;;53.28;25.77;;;;;;;;;;5074984;28;20052;-51
2020/12/23 10:21:22;;;;;;;52.72;26.75;;;;;;;;;;5074988;28;20020;-51
2020/12/23 10:23:48;;;;;;;57.17;30.63;;;;;;;;;;5074934;28;20029;-50
2020/12/23 10:26:15;;;;;;;55.38;26.70;;;;;;;;;;5074994;28;20021;-51
2020/12/23 10:28:41;;;;;;;52.95;25.92;;;;;;;;;;5075295;28;20458;-51
2020/12/23 10:31:07;;;;;;;42.58;25.23;;;;;;;;;;5075231;28;20024;-51
2020/12/23 10:33:34;;;;;;;37.03;22.23;;;;;;;;;;5074885;28;20028;-52
2020/12/23 10:36:04;;;;;;;40.67;24.08;;;;;;;;;;5074822;28;20028;-50
2020/12/23 10:38:31;;;;;;;54.80;28.08;;;;;;;;;;5074998;28;20565;-51
2020/12/23 10:40:57;;;;;;;34.55;21.38;;;;;;;;;;5075001;28;20387;-51
2020/12/23 10:43:23;;;;;;;53.10;25.60;;;;;;;;;;5074810;28;20047;-51
2020/12/23 10:45:50;;;;;;;47.83;26.92;;;;;;;;;;5074889;28;20019;-52
2020/12/23 10:48:16;;;;;;;62.05;30.55;;;;;;;;;;5074450;28;20378;-52
2020/12/23 10:50:43;;;;;;;66.30;33.15;;;;;;;;;;5074860;28;20021;-52
2020/12/23 10:53:10;;;;;;;54.70;30.08;;;;;;;;;;5074471;28;20533;-51
2020/12/23 10:55:36;;;;;;;70.88;34.30;;;;;;;;;;5074714;28;20025;-51
2020/12/23 10:58:02;;;;;;;69.70;33.45;;;;;;;;;;5074497;28;20020;-52
2020/12/23 11:00:29;;;;;;;62.95;30.15;;;;;;;;;;5237275;22;20064;-52
2020/12/23 11:02:55;;;;;;;53.90;28.70;;;;;;;;;;5072797;28;20797;-52
2020/12/23 11:05:22;;;;;;;61.67;29.95;;;;;;;;;;5072452;28;20146;-52
2020/12/23 11:07:48;;;;;;;70.78;31.95;;;;;;;;;;5072453;28;20021;-52
2020/12/23 11:10:15;;;;;;;51.50;32.42;;;;;;;;;;5072387;28;20031;-52
2020/12/23 11:12:41;;;;;;;67.57;34.28;;;;;;;;;;5072368;28;20045;-52
2020/12/23 11:15:08;;;;;;;70.53;31.55;;;;;;;;;;5072226;28;20048;-52
2020/12/23 11:17:34;;;;;;;52.03;31.73;;;;;;;;;;5071629;28;20029;-53
2020/12/23 11:20:00;;;;;;;70.93;29.40;;;;;;;;;;5072021;28;20104;-53
2020/12/23 11:22:27;;;;;;;60.47;34.38;;;;;;;;;;5071724;28;20119;-53
2020/12/23 11:24:53;;;;;;;67.28;35.55;;;;;;;;;;5071326;28;20032;-53
2020/12/23 11:27:19;;;;;;;57.58;30.52;;;;;;;;;;5070764;28;20017;-53
2020/12/23 11:29:46;;;;;;;71.45;33.03;;;;;;;;;;5070912;28;20021;-53
2020/12/23 11:32:13;;;;;;;58.08;31.20;;;;;;;;;;5070613;28;20017;-54
2020/12/23 11:34:40;;;;;;;66.70;33.72;;;;;;;;;;5070677;28;20029;-54
2020/12/23 11:37:06;;;;;;;67.15;35.72;;;;;;;;;;5068400;28;20050;-54
2020/12/23 11:39:33;;;;;;;54.33;32.85;;;;;;;;;;5070751;28;20036;-51
2020/12/23 11:42:02;;;;;;;86.25;38.10;;;;;;;;;;5071566;28;20021;-52
2020/12/23 11:44:28;;;;;;;73.43;35.95;;;;;;;;;;5071418;28;20102;-52
2020/12/23 11:46:55;;;;;;;87.78;37.70;;;;;;;;;;5070050;28;20029;-52
2020/12/23 11:49:22;;;;;;;82.13;40.72;;;;;;;;;;5070253;28;20021;-52
2020/12/23 11:51:51;;;;;;;80.65;43.17;;;;;;;;;;5070239;28;20033;-52
2020/12/23 11:54:18;;;;;;;70.20;39.17;;;;;;;;;;5054811;28;20032;-52
2020/12/23 11:56:50;;;;;;;92.35;36.42;;;;;;;;;;5071036;28;20044;-51
2020/12/23 11:59:16;;;;;;;100.32;51.22;;;;;;;;;;5070537;28;20814;-51
2020/12/23 12:01:43;;;;;;;89.85;38.58;;;;;;;;;;5070679;28;20028;-51
2020/12/23 12:04:11;;;;;;;61.47;37.30;;;;;;;;;;5069647;28;20697;-51
2020/12/23 12:06:37;;;;;;;69.15;37.58;;;;;;;;;;5070785;28;20081;-51
2020/12/23 12:09:04;;;;;;;78.18;40.78;;;;;;;;;;5070813;28;20032;-52
2020/12/23 12:11:30;;;;;;;84.28;44.70;;;;;;;;;;5052394;28;20099;-52
2020/12/23 12:13:57;;;;;;;91.18;43.78;;;;;;;;;;5070901;28;20051;-52
2020/12/23 12:16:23;;;;;;;92.60;45.63;;;;;;;;;;5053806;28;20427;-52
2020/12/23 12:18:49;;;;;;;75.82;44.28;;;;;;;;;;5071128;28;20028;-52
2020/12/23 12:21:16;;;;;;;93.95;47.03;;;;;;;;;;5070209;28;20104;-52
2020/12/23 12:23:42;;;;;;;78.30;43.53;;;;;;;;;;5069733;28;20027;-52
2020/12/23 12:26:08;;;;;;;77.93;44.45;;;;;;;;;;5068806;28;20016;-54
2020/12/23 12:28:35;;;;;;;88.95;44.78;;;;;;;;;;5071706;28;20025;-56
2020/12/23 12:31:01;;;;;;;84.55;43.78;;;;;;;;;;5070095;28;20023;-52
2020/12/23 12:33:27;;;;;;;86.50;46.00;;;;;;;;;;5069625;28;20030;-52
2020/12/23 12:35:54;;;;;;;81.75;44.58;;;;;;;;;;5070032;28;20016;-52
2020/12/23 12:38:20;;;;;;;71.60;46.97;;;;;;;;;;5069461;28;20475;-52
2020/12/23 12:40:46;;;;;;;84.40;42.17;;;;;;;;;;5069994;28;20390;-54
2020/12/23 12:43:12;;;;;;;79.88;45.25;;;;;;;;;;5052004;28;20091;-53
2020/12/23 12:45:39;;;;;;;71.60;41.65;;;;;;;;;;5069389;28;20078;-53
2020/12/23 12:48:05;;;;;;;79.25;45.47;;;;;;;;;;5054643;28;20029;-54
2020/12/23 12:50:31;;;;;;;77.07;45.85;;;;;;;;;;5073889;28;20087;-52
2020/12/23 12:52:58;;;;;;;73.90;44.33;;;;;;;;;;5073963;28;20412;-54
2020/12/23 12:55:24;;;;;;;86.63;47.53;;;;;;;;;;5073594;28;20036;-51
2020/12/23 12:57:50;;;;;;;93.38;46.17;;;;;;;;;;5073478;28;20075;-55
2020/12/23 13:00:17;;;;;;;82.15;44.30;;;;;;;;;;5072592;28;20040;-53
2020/12/23 13:02:44;;;;;;;85.70;52.85;;;;;;;;;;5055710;28;20059;-55
2020/12/23 13:05:11;;;;;;;75.20;49.90;;;;;;;;;;5073534;28;20385;-53
2020/12/23 13:07:37;;;;;;;92.22;53.17;;;;;;;;;;5073570;28;20081;-54
2020/12/23 13:10:03;;;;;;;101.63;56.70;;;;;;;;;;5073351;28;20523;-53
2020/12/23 13:12:32;;;;;;;93.38;50.85;;;;;;;;;;5073636;28;20020;-56
2020/12/23 13:14:58;;;;;;;93.82;54.58;;;;;;;;;;5073475;28;20389;-56
2020/12/23 13:17:25;;;;;;;109.72;57.67;;;;;;;;;;5073484;28;20020;-53
2020/12/23 13:19:52;;;;;;;94.28;55.13;;;;;;;;;;5073105;28;20039;-57
2020/12/23 13:22:19;;;;;;;89.85;52.47;;;;;;;;;;5072764;28;20051;-57
2020/12/23 13:24:45;;;;;;;92.53;51.58;;;;;;;;;;5073118;28;20031;-52
2020/12/23 13:27:11;;;;;;;99.35;57.85;;;;;;;;;;5073093;28;20016;-52
2020/12/23 13:29:37;;;;;;;95.22;55.38;;;;;;;;;;5073063;28;20044;-52
2020/12/23 13:32:04;;;;;;;101.22;53.63;;;;;;;;;;5072604;28;20023;-52
2020/12/23 13:34:30;;;;;;;92.50;57.22;;;;;;;;;;5072663;28;20135;-54
2020/12/23 13:39:38;;;;;;;108.60;60.22;;;;;;;;;;5076958;22;20049;-51
2020/12/23 13:42:06;;;;;;;88.90;55.00;;;;;;;;;;5003075;28;20101;-50
2020/12/23 13:44:33;;;;;;;96.63;60.95;;;;;;;;;;5002327;28;20475;-52
2020/12/23 13:47:00;;;;;;;99.45;58.65;;;;;;;;;;5002790;28;20097;-52
2020/12/23 13:49:26;;;;;;;120.78;65.40;;;;;;;;;;5007238;28;20029;-52
2020/12/23 13:51:52;;;;;;;124.43;66.65;;;;;;;;;;5008057;28;20022;-52
2020/12/23 13:54:18;;;;;;;89.38;52.13;;;;;;;;;;5000934;28;20022;-52
2020/12/23 13:56:45;;;;;;;87.15;53.53;;;;;;;;;;5001145;28;20034;-50
2020/12/23 13:59:12;;;;;;;104.82;58.58;;;;;;;;;;5005093;28;20516;-54
2020/12/23 14:01:38;;;;;;;95.47;58.50;;;;;;;;;;5004546;28;20033;-66
2020/12/23 14:04:05;;;;;;;93.57;58.67;;;;;;;;;;5003353;28;20020;-52
2020/12/23 14:06:31;;;;;;;98.25;61.03;;;;;;;;;;5003286;28;20061;-56
2020/12/23 14:08:57;;;;;;;98.22;59.28;;;;;;;;;;5000182;28;20032;-50
2020/12/23 14:11:30;;;;;;;111.50;55.08;;;;;;;;;;5002966;28;20022;-52
2020/12/23 14:13:57;;;;;;;105.85;63.47;;;;;;;;;;5005307;28;20052;-51
2020/12/23 14:16:24;;;;;;;97.68;55.15;;;;;;;;;;5004126;28;20033;-51